createdAt,value
2022-10-14T00:05:56.357Z,33.80
2022-10-14T00:11:03.237Z,34.00
2022-10-14T00:16:14.739Z,33.90
2022-10-14T00:21:17.802Z,34.00
2022-10-14T00:26:23.144Z,33.90
2022-10-14T00:31:26.956Z,34.70
2022-10-14T00:36:29.092Z,34.70
2022-10-14T00:41:33.749Z,34.00
2022-10-14T00:46:40.955Z,34.10
2022-10-14T00:51:48.761Z,33.90
2022-10-14T00:56:51.666Z,34.10
2022-10-14T01:01:53.912Z,34.00
2022-10-14T01:07:15.344Z,34.10
2022-10-14T01:12:29.906Z,34.20
2022-10-14T01:17:40.981Z,34.00
2022-10-14T01:23:04.939Z,34.00
2022-10-14T01:28:24.738Z,34.00
2022-10-14T01:33:33.495Z,34.00
2022-10-14T01:38:41.101Z,34.10
2022-10-14T01:43:48.528Z,34.20
2022-10-14T01:48:56.538Z,34.10
2022-10-14T01:54:18.859Z,34.10
2022-10-14T01:59:23.038Z,34.20
2022-10-14T02:04:25.408Z,34.10
2022-10-14T02:09:46.317Z,34.10
2022-10-14T02:15:13.446Z,34.00
2022-10-14T02:20:35.328Z,34.10
2022-10-14T02:25:41.378Z,34.90
2022-10-14T02:30:49.144Z,34.10
2022-10-14T02:35:54.637Z,34.10
2022-10-14T02:46:04.622Z,34.00
2022-10-14T02:51:07.217Z,33.90
2022-10-14T02:56:14.097Z,34.00
2022-10-14T03:01:16.181Z,33.90
2022-10-14T03:06:19.117Z,33.80
2022-10-14T03:11:21.755Z,34.00
2022-10-14T03:16:25.376Z,34.30
2022-10-14T03:21:27.696Z,33.90
2022-10-14T03:26:30.071Z,34.60
2022-10-14T03:31:32.284Z,34.00
2022-10-14T03:36:35.327Z,33.80
2022-10-14T03:41:38.623Z,33.70
2022-10-14T03:46:41.210Z,33.70
2022-10-14T03:51:43.331Z,33.70
2022-10-14T03:56:47.135Z,33.80
2022-10-14T04:01:50.809Z,33.70
2022-10-14T04:06:54.176Z,33.70
2022-10-14T04:11:57.850Z,33.70
2022-10-14T04:17:01.245Z,33.80
2022-10-14T04:22:03.541Z,33.90
2022-10-14T04:27:07.824Z,33.90
2022-10-14T04:32:10.489Z,33.90
2022-10-14T04:37:12.717Z,34.00
2022-10-14T04:42:16.323Z,33.90
2022-10-14T04:47:20.075Z,33.90
2022-10-14T04:52:23.974Z,33.90
2022-10-14T04:57:27.134Z,33.80
2022-10-14T05:02:30.156Z,33.90
2022-10-14T05:07:33.137Z,33.80
2022-10-14T05:12:38.717Z,34.00
2022-10-14T05:17:44.415Z,34.00
2022-10-14T05:22:47.497Z,33.90
2022-10-14T05:27:49.761Z,33.90
2022-10-14T05:32:52.794Z,34.00
2022-10-14T05:37:59.528Z,34.00
2022-10-14T05:43:07.040Z,34.00
2022-10-14T05:48:10.646Z,34.00
2022-10-14T05:58:16.696Z,34.30
2022-10-14T06:03:19.411Z,34.10
2022-10-14T06:08:23.330Z,34.20
2022-10-14T06:13:25.919Z,34.20
2022-10-14T06:18:29.838Z,34.30
2022-10-14T06:23:32.371Z,34.30
2022-10-14T06:28:34.793Z,34.40
2022-10-14T06:33:36.983Z,34.30
2022-10-14T06:38:39.056Z,34.50
2022-10-14T06:43:41.222Z,34.50
2022-10-14T06:48:46.880Z,34.60
2022-10-14T06:53:52.373Z,34.50
2022-10-14T06:58:55.438Z,34.60
2022-10-14T07:09:00.092Z,34.70
2022-10-14T07:14:02.238Z,34.60
2022-10-14T07:19:04.350Z,34.60
2022-10-14T07:24:06.741Z,34.60
2022-10-14T07:29:08.938Z,34.70
2022-10-14T07:34:11.128Z,34.60
2022-10-14T07:39:13.706Z,35.30
2022-10-14T07:44:16.837Z,35.30
2022-10-14T07:49:21.062Z,34.60
2022-10-14T07:54:25.698Z,34.70
2022-10-14T07:59:27.854Z,34.70
2022-10-14T08:04:30.079Z,34.80
2022-10-14T08:09:35.487Z,34.90
2022-10-14T08:14:37.947Z,35.90
2022-10-14T08:19:40.062Z,34.90
2022-10-14T08:24:42.235Z,35.70
2022-10-14T08:29:44.331Z,34.60
2022-10-14T08:34:46.372Z,35.20
2022-10-14T08:39:48.454Z,34.20
2022-10-14T08:44:57.216Z,34.10
2022-10-14T08:50:06.777Z,35.00
2022-10-14T09:00:38.906Z,34.30
2022-10-14T09:05:41.125Z,34.00
2022-10-14T09:15:52.984Z,33.50
2022-10-14T09:20:57.363Z,33.80
2022-10-14T09:26:05.646Z,33.90
2022-10-14T09:31:12.318Z,32.90
2022-10-14T09:36:19.259Z,33.20
2022-10-14T09:41:30.712Z,32.60
2022-10-14T09:46:32.860Z,32.30
2022-10-14T09:51:35.215Z,32.20
2022-10-14T09:56:42.453Z,32.00
2022-10-14T10:01:54.228Z,31.70
2022-10-14T10:06:56.611Z,31.70
2022-10-14T10:11:58.624Z,32.20
2022-10-14T10:17:12.625Z,31.50
2022-10-14T10:22:23.882Z,32.30
2022-10-14T10:27:37.159Z,32.50
2022-10-14T10:32:50.324Z,32.10
2022-10-14T10:38:17.428Z,31.10
2022-10-14T10:43:40.481Z,30.30
2022-10-14T10:48:46.463Z,30.10
2022-10-14T10:54:06.521Z,29.80
2022-10-14T10:59:56.213Z,29.90
2022-10-14T11:05:27.670Z,29.90
2022-10-14T11:11:03.195Z,29.80
2022-10-14T11:16:16.025Z,29.90
2022-10-14T11:21:27.128Z,30.00
2022-10-14T11:26:43.360Z,30.50
2022-10-14T11:32:24.669Z,30.10
2022-10-14T11:37:48.223Z,30.00
2022-10-14T11:42:53.337Z,30.10
2022-10-14T11:48:20.330Z,30.50
2022-10-14T11:53:41.957Z,29.70
2022-10-14T11:58:48.530Z,32.40
2022-10-14T12:04:09.315Z,29.60
2022-10-14T12:09:39.389Z,29.30
2022-10-14T12:14:51.645Z,29.20
2022-10-14T12:19:54.325Z,29.20
2022-10-14T12:24:58.867Z,29.10
2022-10-14T12:30:02.693Z,29.30
2022-10-14T12:35:42.995Z,29.00
2022-10-14T12:45:57.754Z,29.10
2022-10-14T12:51:16.434Z,28.80
2022-10-14T12:56:53.109Z,28.40
2022-10-14T13:01:57.996Z,28.10
2022-10-14T13:07:39.750Z,28.40
2022-10-14T13:12:42.360Z,28.10
2022-10-14T13:17:46.705Z,28.30
2022-10-14T13:22:49.402Z,28.40
2022-10-14T13:28:03.062Z,28.50
2022-10-14T13:33:16.147Z,28.30
2022-10-14T13:38:19.631Z,28.20
2022-10-14T13:43:31.163Z,28.00
2022-10-14T13:48:41.152Z,28.10
2022-10-14T13:54:32.749Z,28.00
2022-10-14T13:59:44.553Z,28.20
2022-10-14T14:05:03.262Z,28.10
2022-10-14T14:10:09.720Z,28.10
2022-10-14T14:15:26.837Z,28.10
2022-10-14T14:20:29.645Z,28.40
2022-10-14T14:25:36.106Z,28.20
2022-10-14T14:30:55.077Z,28.70
2022-10-14T14:36:12.076Z,29.10
2022-10-14T14:41:39.249Z,29.50
2022-10-14T14:46:45.262Z,29.20
2022-10-14T14:51:48.086Z,29.80
2022-10-14T14:56:59.663Z,29.60
2022-10-14T15:07:21.522Z,29.70
2022-10-14T15:12:28.106Z,29.80
2022-10-14T15:17:43.052Z,29.80
2022-10-14T15:22:46.966Z,30.10
2022-10-14T15:27:55.817Z,30.00
2022-10-14T15:33:00.730Z,30.10
2022-10-14T15:38:02.951Z,30.60
2022-10-14T15:43:20.218Z,30.70
2022-10-14T15:48:22.280Z,31.00
2022-10-14T15:58:27.591Z,31.10
2022-10-14T16:03:34.769Z,31.40
2022-10-14T16:08:46.507Z,31.10
2022-10-14T16:18:52.832Z,31.60
2022-10-14T16:23:55.308Z,31.60
2022-10-14T16:29:00.145Z,31.70
2022-10-14T16:34:02.366Z,32.10
2022-10-14T16:39:04.653Z,31.80
2022-10-14T16:44:07.617Z,32.00
2022-10-14T16:49:10.096Z,32.40
2022-10-14T16:54:12.200Z,32.50
2022-10-14T16:59:15.408Z,32.50
2022-10-14T17:04:20.671Z,32.60
2022-10-14T17:14:31.090Z,32.70
2022-10-14T17:19:33.185Z,33.10
2022-10-14T17:24:35.236Z,33.10
2022-10-14T17:29:37.377Z,33.20
2022-10-14T17:34:39.408Z,33.20
2022-10-14T17:39:41.490Z,33.40
2022-10-14T17:44:44.014Z,33.20
2022-10-14T17:49:47.071Z,33.20
2022-10-14T17:54:49.217Z,33.50
2022-10-14T17:59:51.505Z,33.20
2022-10-14T18:04:53.559Z,34.00
2022-10-14T18:09:55.677Z,33.20
2022-10-14T18:14:57.741Z,34.00
2022-10-14T18:20:04.035Z,33.40
2022-10-14T18:25:06.553Z,33.20
2022-10-14T18:30:09.972Z,33.60
2022-10-14T18:35:12.058Z,34.50
2022-10-14T18:40:16.846Z,34.30
2022-10-14T18:45:18.833Z,33.50
2022-10-14T18:50:20.874Z,33.60
2022-10-14T18:55:22.956Z,34.40
2022-10-14T19:00:26.738Z,33.70
2022-10-14T19:05:32.932Z,33.50
2022-10-14T19:10:35.394Z,33.40
2022-10-14T19:15:53.687Z,33.50
2022-10-14T19:21:03.802Z,33.60
2022-10-14T19:26:11.096Z,33.70
2022-10-14T19:31:16.583Z,33.80
2022-10-14T19:36:19.747Z,33.80
2022-10-14T19:41:21.810Z,34.50
2022-10-14T19:46:27.445Z,33.80
2022-10-14T19:51:30.560Z,34.00
2022-10-14T19:56:32.627Z,33.70
2022-10-14T20:01:34.815Z,33.90
2022-10-14T20:06:38.472Z,34.10
2022-10-14T20:11:41.375Z,34.10
2022-10-14T20:16:43.498Z,34.90
2022-10-14T20:21:45.561Z,34.20
2022-10-14T20:26:47.640Z,34.20
2022-10-14T20:31:49.768Z,34.30
2022-10-14T20:36:53.230Z,34.30
2022-10-14T20:41:55.684Z,34.40
2022-10-14T20:46:57.870Z,34.30
2022-10-14T20:51:59.983Z,34.40
2022-10-14T20:57:02.056Z,34.50
2022-10-14T21:02:04.105Z,34.50
2022-10-14T21:07:06.198Z,34.60
2022-10-14T21:12:08.208Z,34.70
2022-10-14T21:17:10.197Z,34.70
2022-10-14T21:22:12.300Z,34.70
2022-10-14T21:27:14.357Z,34.80
2022-10-14T21:32:16.454Z,35.00
2022-10-14T21:37:20.226Z,35.90
2022-10-14T21:42:22.585Z,35.90
2022-10-14T21:47:24.866Z,35.20
2022-10-14T21:52:26.944Z,35.30
2022-10-14T21:57:29.015Z,36.00
2022-10-14T22:02:31.053Z,35.30
2022-10-14T22:07:33.111Z,35.30
2022-10-14T22:12:35.149Z,36.10
2022-10-14T22:17:37.147Z,35.40
2022-10-14T22:22:39.146Z,35.40
2022-10-14T22:27:41.201Z,35.40
2022-10-14T22:32:43.512Z,36.20
2022-10-14T22:37:45.583Z,35.40
2022-10-14T22:42:51.300Z,35.60
2022-10-14T22:47:53.685Z,35.60
2022-10-14T22:52:55.704Z,35.60
2022-10-14T22:57:57.785Z,35.60
2022-10-14T23:08:02.496Z,35.50
2022-10-14T23:13:05.767Z,35.70
2022-10-14T23:18:07.813Z,35.80
2022-10-14T23:23:10.407Z,35.70
2022-10-14T23:28:12.655Z,35.70
2022-10-14T23:33:14.711Z,35.70
2022-10-14T23:38:16.769Z,36.40
2022-10-14T23:43:19.251Z,35.70
2022-10-14T23:48:21.765Z,35.60
2022-10-14T23:53:26.311Z,36.40
2022-10-14T23:58:29.635Z,35.70
